createdAt,value
2022-08-31T00:01:51.596Z,61.47
2022-08-31T00:04:55.723Z,60.87
2022-08-31T00:07:58.098Z,60.98
2022-08-31T00:11:00.985Z,60.80
2022-08-31T00:14:13.365Z,60.95
2022-08-31T00:17:16.508Z,60.98
2022-08-31T00:20:32.431Z,60.52
2022-08-31T00:23:36.613Z,61.12
2022-08-31T00:26:38.762Z,61.47
2022-08-31T00:29:41.286Z,60.37
2022-08-31T00:32:43.343Z,60.48
2022-08-31T00:35:45.843Z,61.08
2022-08-31T00:38:49.590Z,61.16
2022-08-31T00:41:51.770Z,60.82
2022-08-31T00:44:54.107Z,60.63
2022-08-31T00:47:56.372Z,61.45
2022-08-31T00:50:59.222Z,60.77
2022-08-31T00:54:01.526Z,62.02
2022-08-31T00:57:05.866Z,61.69
2022-08-31T01:00:12.682Z,61.22
2022-08-31T01:03:17.358Z,60.92
2022-08-31T01:06:20.687Z,61.54
2022-08-31T01:09:25.281Z,61.00
2022-08-31T01:12:28.221Z,61.50
2022-08-31T01:15:31.812Z,61.06
2022-08-31T01:18:35.022Z,60.98
2022-08-31T01:21:57.238Z,60.79
2022-08-31T01:25:00.696Z,60.79
2022-08-31T01:28:07.407Z,60.43
2022-08-31T01:31:14.945Z,61.14
2022-08-31T01:34:17.227Z,60.67
2022-08-31T01:37:19.768Z,60.82
2022-08-31T01:40:38.513Z,60.54
2022-08-31T01:43:40.698Z,60.58
2022-08-31T01:46:43.606Z,60.35
2022-08-31T01:49:45.771Z,60.81
2022-08-31T01:52:47.873Z,60.82
2022-08-31T01:55:50.472Z,60.64
2022-08-31T01:58:53.483Z,60.50
2022-08-31T02:02:15.892Z,60.11
2022-08-31T02:05:18.296Z,60.31
2022-08-31T02:08:20.576Z,60.69
2022-08-31T02:11:22.852Z,60.67
2022-08-31T02:14:26.080Z,60.16
2022-08-31T02:17:28.528Z,60.85
2022-08-31T02:20:31.168Z,60.79
2022-08-31T02:23:33.483Z,61.42
2022-08-31T02:26:35.701Z,60.90
2022-08-31T02:29:38.655Z,60.89
2022-08-31T02:32:40.811Z,60.98
2022-08-31T02:35:45.226Z,61.43
2022-08-31T02:38:50.710Z,60.76
2022-08-31T02:41:54.367Z,60.34
2022-08-31T02:44:57.377Z,60.86
2022-08-31T02:47:59.564Z,60.26
2022-08-31T02:51:11.618Z,61.04
2022-08-31T02:54:14.188Z,61.12
2022-08-31T02:57:21.000Z,61.82
2022-08-31T03:00:24.603Z,61.71
2022-08-31T03:03:26.759Z,60.82
2022-08-31T03:06:30.029Z,60.59
2022-08-31T03:09:34.125Z,60.92
2022-08-31T03:12:38.004Z,60.97
2022-08-31T03:15:41.642Z,61.66
2022-08-31T03:18:43.914Z,62.26
2022-08-31T03:21:47.261Z,61.70
2022-08-31T03:24:49.919Z,61.87
2022-08-31T03:27:52.041Z,61.59
2022-08-31T03:30:54.410Z,62.04
2022-08-31T03:33:57.575Z,61.98
2022-08-31T03:36:59.740Z,62.08
2022-08-31T03:40:02.872Z,61.18
2022-08-31T03:43:11.598Z,61.31
2022-08-31T03:46:15.658Z,60.61
2022-08-31T03:49:19.015Z,60.84
2022-08-31T03:52:38.662Z,61.08
2022-08-31T03:55:48.122Z,61.53
2022-08-31T03:58:50.947Z,60.83
2022-08-31T04:02:22.574Z,60.78
2022-08-31T04:05:45.126Z,61.18
2022-08-31T04:09:13.600Z,60.91
2022-08-31T04:12:48.071Z,61.28
2022-08-31T04:16:23.088Z,60.82
2022-08-31T04:19:57.188Z,61.72
2022-08-31T04:23:11.766Z,61.74
2022-08-31T04:26:37.112Z,60.72
2022-08-31T04:29:40.849Z,60.98
2022-08-31T04:32:42.907Z,60.99
2022-08-31T04:35:45.035Z,61.12
2022-08-31T04:38:49.410Z,61.06
2022-08-31T04:41:51.837Z,61.33
2022-08-31T04:44:54.967Z,60.95
2022-08-31T04:47:57.149Z,61.38
2022-08-31T04:51:06.690Z,62.08
2022-08-31T04:54:11.819Z,61.82
2022-08-31T04:57:13.975Z,62.58
2022-08-31T05:00:18.102Z,62.70
2022-08-31T05:03:41.110Z,62.12
2022-08-31T05:06:46.360Z,61.85
2022-08-31T05:09:49.738Z,62.11
2022-08-31T05:12:52.229Z,60.96
2022-08-31T05:15:58.303Z,61.39
2022-08-31T05:19:01.482Z,61.66
2022-08-31T05:22:03.961Z,61.34
2022-08-31T05:25:09.526Z,62.26
2022-08-31T05:28:11.653Z,62.06
2022-08-31T05:31:14.570Z,61.83
2022-08-31T05:34:21.973Z,61.49
2022-08-31T05:37:24.374Z,61.65
2022-08-31T05:40:28.222Z,61.47
2022-08-31T05:43:31.161Z,61.67
2022-08-31T05:46:34.756Z,62.39
2022-08-31T05:49:39.198Z,62.37
2022-08-31T05:52:43.685Z,62.44
2022-08-31T05:55:46.206Z,62.21
2022-08-31T05:58:49.261Z,62.23
2022-08-31T06:01:52.249Z,61.93
2022-08-31T06:04:59.226Z,62.57
2022-08-31T06:08:01.622Z,62.34
2022-08-31T06:11:05.966Z,61.81
2022-08-31T06:14:09.909Z,62.05
2022-08-31T06:17:13.520Z,61.79
2022-08-31T06:20:18.165Z,61.94
2022-08-31T06:23:22.552Z,61.78
2022-08-31T06:26:29.208Z,61.57
2022-08-31T06:29:32.331Z,62.66
2022-08-31T06:32:36.083Z,62.15
2022-08-31T06:35:40.456Z,63.01
2022-08-31T06:39:09.245Z,62.57
2022-08-31T06:42:20.106Z,62.66
2022-08-31T06:45:31.548Z,62.64
2022-08-31T06:48:56.406Z,62.21
2022-08-31T06:52:00.984Z,62.88
2022-08-31T06:55:04.516Z,62.73
2022-08-31T06:58:25.288Z,61.95
2022-08-31T07:01:49.365Z,62.07
2022-08-31T07:04:58.801Z,62.24
2022-08-31T07:08:00.822Z,62.75
2022-08-31T07:11:03.605Z,62.76
2022-08-31T07:14:09.961Z,62.56
2022-08-31T07:17:13.629Z,62.09
2022-08-31T07:20:15.805Z,61.89
2022-08-31T07:23:18.485Z,62.58
2022-08-31T07:26:39.262Z,62.06
2022-08-31T07:29:41.514Z,62.27
2022-08-31T07:32:50.391Z,62.84
2022-08-31T07:35:58.960Z,61.87
2022-08-31T07:39:39.952Z,62.71
2022-08-31T07:42:44.574Z,62.93
2022-08-31T07:45:46.857Z,62.29
2022-08-31T07:48:55.026Z,63.50
2022-08-31T07:52:00.196Z,63.34
2022-08-31T07:55:28.327Z,62.87
2022-08-31T07:58:35.350Z,62.86
2022-08-31T08:01:40.517Z,62.49
2022-08-31T08:04:44.413Z,63.13
2022-08-31T08:08:23.000Z,63.00
2022-08-31T08:11:55.340Z,63.12
2022-08-31T08:15:16.394Z,62.64
2022-08-31T08:18:18.549Z,63.04
2022-08-31T08:21:25.088Z,63.05
2022-08-31T08:24:29.463Z,62.80
2022-08-31T08:27:41.196Z,62.12
2022-08-31T08:31:01.663Z,62.68
2022-08-31T08:34:06.921Z,62.67
2022-08-31T08:37:11.471Z,61.99
2022-08-31T08:40:42.823Z,62.04
2022-08-31T08:43:58.845Z,62.06
2022-08-31T08:47:07.974Z,62.31
2022-08-31T08:50:19.176Z,61.37
2022-08-31T08:53:27.512Z,62.30
2022-08-31T08:56:49.838Z,62.08
2022-08-31T08:59:58.629Z,61.34
2022-08-31T09:03:12.597Z,62.17
2022-08-31T09:07:11.923Z,61.93
2022-08-31T09:10:26.196Z,61.74
2022-08-31T09:13:56.430Z,61.36
2022-08-31T09:17:02.369Z,61.97
2022-08-31T09:20:05.948Z,61.64
2022-08-31T09:23:09.294Z,61.18
2022-08-31T09:26:16.935Z,60.71
2022-08-31T09:29:45.122Z,60.21
2022-08-31T09:32:57.285Z,60.61
2022-08-31T09:36:22.551Z,59.93
2022-08-31T09:39:33.007Z,60.99
2022-08-31T09:42:39.393Z,60.46
2022-08-31T09:46:25.977Z,60.06
2022-08-31T09:49:39.190Z,58.97
2022-08-31T09:52:59.659Z,60.61
2022-08-31T09:56:18.918Z,59.61
2022-08-31T09:59:44.608Z,59.16
2022-08-31T10:02:46.830Z,58.74
2022-08-31T10:05:51.978Z,58.17
2022-08-31T10:09:00.642Z,58.89
2022-08-31T10:12:09.866Z,58.10
2022-08-31T10:15:21.636Z,58.04
2022-08-31T10:18:39.789Z,57.73
2022-08-31T10:21:53.568Z,57.37
2022-08-31T10:25:12.881Z,57.67
2022-08-31T10:28:43.936Z,54.79
2022-08-31T10:31:55.187Z,56.35
2022-08-31T10:35:19.715Z,56.10
2022-08-31T10:38:38.662Z,55.40
2022-08-31T10:41:45.246Z,55.39
2022-08-31T10:44:58.987Z,55.76
2022-08-31T10:48:05.129Z,55.97
2022-08-31T10:51:19.594Z,55.79
2022-08-31T10:54:40.474Z,55.87
2022-08-31T10:57:58.780Z,56.47
2022-08-31T11:01:08.754Z,54.98
2022-08-31T11:04:22.960Z,56.32
2022-08-31T11:07:36.957Z,56.08
2022-08-31T11:10:54.553Z,55.98
2022-08-31T11:14:09.992Z,56.44
2022-08-31T11:17:47.551Z,56.53
2022-08-31T11:21:21.701Z,55.71
2022-08-31T11:24:56.267Z,55.64
2022-08-31T11:28:07.261Z,55.87
2022-08-31T11:31:23.866Z,55.21
2022-08-31T11:34:29.007Z,55.71
2022-08-31T11:37:51.061Z,56.26
2022-08-31T11:41:00.863Z,54.67
2022-08-31T11:44:06.226Z,54.75
2022-08-31T11:47:28.957Z,55.33
2022-08-31T11:50:37.269Z,55.37
2022-08-31T11:53:44.562Z,54.59
2022-08-31T11:56:47.726Z,55.02
2022-08-31T11:59:51.001Z,55.06
2022-08-31T12:03:09.661Z,55.33
2022-08-31T12:06:37.389Z,52.51
2022-08-31T12:09:42.445Z,54.62
2022-08-31T12:13:07.856Z,54.76
2022-08-31T12:16:23.318Z,53.56
2022-08-31T12:19:54.923Z,53.55
2022-08-31T12:23:30.941Z,52.97
2022-08-31T12:26:59.691Z,53.37
2022-08-31T12:30:20.381Z,52.76
2022-08-31T12:33:26.936Z,52.83
2022-08-31T12:36:32.733Z,53.34
2022-08-31T12:39:34.939Z,53.18
2022-08-31T12:42:46.333Z,52.22
2022-08-31T12:46:12.730Z,52.79
2022-08-31T12:49:37.769Z,53.05
2022-08-31T12:53:17.272Z,53.58
2022-08-31T12:56:33.571Z,53.11
2022-08-31T13:00:01.271Z,53.33
2022-08-31T13:03:07.172Z,53.29
2022-08-31T13:06:13.810Z,53.53
2022-08-31T13:09:30.327Z,52.66
2022-08-31T13:12:32.698Z,51.97
2022-08-31T13:15:42.307Z,52.77
2022-08-31T13:18:46.513Z,51.50
2022-08-31T13:22:07.995Z,52.32
2022-08-31T13:25:36.200Z,51.73
2022-08-31T13:28:38.471Z,51.54
2022-08-31T13:31:50.148Z,52.86
2022-08-31T13:34:55.081Z,51.71
2022-08-31T13:38:05.181Z,51.93
2022-08-31T13:41:28.184Z,52.21
2022-08-31T13:44:33.962Z,52.48
2022-08-31T13:47:56.821Z,52.32
2022-08-31T13:51:13.202Z,52.10
2022-08-31T13:54:27.643Z,51.43
2022-08-31T13:57:34.895Z,51.29
2022-08-31T14:00:44.168Z,52.25
2022-08-31T14:03:59.228Z,50.77
2022-08-31T14:07:02.160Z,49.12
2022-08-31T14:10:19.461Z,49.54
2022-08-31T14:13:25.384Z,51.35
2022-08-31T14:16:33.274Z,51.36
2022-08-31T14:19:40.142Z,50.21
2022-08-31T14:22:45.856Z,50.56
2022-08-31T14:25:48.006Z,49.50
2022-08-31T14:28:53.663Z,49.76
2022-08-31T14:31:58.043Z,49.43
2022-08-31T14:35:02.416Z,50.26
2022-08-31T14:38:04.589Z,49.78
2022-08-31T14:41:09.267Z,49.99
2022-08-31T14:44:13.565Z,50.21
2022-08-31T14:47:15.618Z,49.92
2022-08-31T14:50:23.579Z,50.35
2022-08-31T14:53:25.957Z,50.12
2022-08-31T14:56:33.348Z,51.67
2022-08-31T14:59:36.326Z,51.19
2022-08-31T15:02:39.061Z,51.72
2022-08-31T15:05:42.425Z,51.43
2022-08-31T15:08:44.582Z,51.28
2022-08-31T15:11:47.012Z,51.26
2022-08-31T15:14:49.895Z,51.79
2022-08-31T15:17:52.133Z,51.52
2022-08-31T15:20:56.071Z,51.53
2022-08-31T15:23:58.478Z,51.60
2022-08-31T15:27:01.594Z,51.76
2022-08-31T15:30:07.935Z,51.57
2022-08-31T15:33:11.274Z,51.72
2022-08-31T15:36:15.582Z,50.33
2022-08-31T15:39:20.340Z,51.58
2022-08-31T15:42:23.810Z,51.50
2022-08-31T15:45:30.040Z,52.18
2022-08-31T15:48:47.484Z,52.27
2022-08-31T15:51:51.865Z,52.95
2022-08-31T15:54:54.735Z,53.45
2022-08-31T15:57:59.436Z,53.14
2022-08-31T16:01:02.054Z,53.12
2022-08-31T16:04:08.328Z,53.14
2022-08-31T16:07:11.890Z,52.71
2022-08-31T16:10:19.826Z,53.78
2022-08-31T16:13:22.591Z,53.93
2022-08-31T16:16:30.951Z,53.89
2022-08-31T16:19:36.494Z,53.64
2022-08-31T16:22:39.675Z,53.59
2022-08-31T16:25:48.561Z,52.89
2022-08-31T16:28:51.202Z,53.12
2022-08-31T16:31:54.517Z,53.15
2022-08-31T16:34:56.986Z,53.59
2022-08-31T16:38:00.566Z,53.30
2022-08-31T16:41:04.945Z,53.32
2022-08-31T16:44:19.467Z,53.52
2022-08-31T16:47:21.994Z,54.00
2022-08-31T16:50:24.218Z,54.28
2022-08-31T16:53:26.353Z,54.61
2022-08-31T16:56:32.778Z,54.57
2022-08-31T16:59:36.543Z,54.54
2022-08-31T17:02:38.670Z,54.31
2022-08-31T17:05:43.022Z,54.84
2022-08-31T17:08:46.197Z,54.38
2022-08-31T17:11:56.828Z,55.00
2022-08-31T17:15:00.530Z,54.96
2022-08-31T17:18:02.587Z,54.91
2022-08-31T17:21:04.728Z,55.06
2022-08-31T17:24:06.821Z,54.95
2022-08-31T17:27:17.282Z,55.33
2022-08-31T17:30:19.494Z,54.58
2022-08-31T17:33:23.381Z,55.01
2022-08-31T17:36:37.315Z,54.76
2022-08-31T17:39:42.412Z,54.90
2022-08-31T17:42:44.789Z,54.81
2022-08-31T17:45:46.943Z,55.77
2022-08-31T17:48:49.423Z,55.44
2022-08-31T17:51:54.120Z,55.53
2022-08-31T17:54:56.646Z,55.27
2022-08-31T17:57:58.971Z,55.60
2022-08-31T18:01:01.372Z,55.86
2022-08-31T18:04:05.142Z,55.84
2022-08-31T18:07:09.270Z,55.58
2022-08-31T18:10:12.744Z,55.75
2022-08-31T18:13:15.011Z,55.59
2022-08-31T18:16:18.103Z,56.40
2022-08-31T18:19:25.573Z,55.87
2022-08-31T18:22:30.331Z,55.78
2022-08-31T18:25:36.979Z,55.30
2022-08-31T18:28:39.326Z,55.37
2022-08-31T18:31:44.196Z,55.39
2022-08-31T18:34:47.519Z,55.41
2022-08-31T18:37:49.792Z,55.75
2022-08-31T18:41:10.414Z,56.09
2022-08-31T18:44:32.242Z,55.65
2022-08-31T18:47:34.345Z,55.97
2022-08-31T18:50:37.257Z,55.55
2022-08-31T18:53:39.539Z,55.82
2022-08-31T18:56:42.187Z,55.56
2022-08-31T18:59:44.895Z,56.35
2022-08-31T19:02:47.128Z,56.23
2022-08-31T19:05:49.502Z,55.81
2022-08-31T19:08:52.646Z,56.12
2022-08-31T19:11:55.991Z,55.99
2022-08-31T19:14:59.327Z,56.24
2022-08-31T19:18:01.448Z,56.04
2022-08-31T19:21:33.476Z,55.15
2022-08-31T19:24:36.058Z,55.64
2022-08-31T19:27:39.349Z,55.56
2022-08-31T19:30:47.771Z,56.02
2022-08-31T19:33:56.537Z,55.40
2022-08-31T19:37:00.986Z,55.86
2022-08-31T19:40:05.630Z,55.67
2022-08-31T19:46:32.990Z,56.28
2022-08-31T19:49:35.393Z,56.37
2022-08-31T19:52:37.654Z,55.64
2022-08-31T19:55:50.605Z,55.65
2022-08-31T19:58:56.599Z,55.81
2022-08-31T20:01:59.629Z,55.96
2022-08-31T20:05:06.690Z,56.04
2022-08-31T20:08:10.134Z,55.67
2022-08-31T20:11:17.045Z,55.47
2022-08-31T20:14:23.995Z,56.25
2022-08-31T20:17:30.244Z,55.74
2022-08-31T20:20:36.290Z,56.59
2022-08-31T20:23:38.898Z,56.10
2022-08-31T20:26:51.949Z,56.14
2022-08-31T20:29:54.419Z,56.29
2022-08-31T20:32:56.590Z,55.72
2022-08-31T20:35:58.858Z,56.20
2022-08-31T20:39:07.940Z,56.17
2022-08-31T20:42:10.157Z,57.15
2022-08-31T20:45:12.284Z,57.06
2022-08-31T20:48:33.319Z,56.51
2022-08-31T20:51:40.396Z,56.77
2022-08-31T20:54:43.947Z,56.52
2022-08-31T20:57:47.071Z,56.44
2022-08-31T21:00:51.795Z,56.29
2022-08-31T21:03:53.967Z,56.82
2022-08-31T21:06:58.028Z,56.95
2022-08-31T21:10:00.046Z,56.76
2022-08-31T21:13:02.380Z,56.80
2022-08-31T21:16:04.689Z,56.36
2022-08-31T21:19:13.825Z,55.99
2022-08-31T21:22:17.322Z,56.57
2022-08-31T21:25:19.547Z,56.78
2022-08-31T21:28:22.030Z,56.36
2022-08-31T21:31:28.949Z,56.05
2022-08-31T21:34:32.154Z,57.40
2022-08-31T21:37:34.277Z,57.21
2022-08-31T21:40:37.179Z,57.35
2022-08-31T21:43:40.267Z,56.87
2022-08-31T21:46:46.971Z,57.13
2022-08-31T21:49:53.575Z,57.23
2022-08-31T21:53:00.099Z,57.53
2022-08-31T21:56:04.018Z,57.33
2022-08-31T21:59:06.574Z,57.04
2022-08-31T22:02:11.497Z,56.90
2022-08-31T22:05:14.027Z,56.54
2022-08-31T22:08:16.117Z,57.15
2022-08-31T22:11:20.507Z,57.41
2022-08-31T22:14:26.618Z,56.53
2022-08-31T22:17:48.331Z,56.86
2022-08-31T22:20:51.574Z,56.73
2022-08-31T22:23:59.938Z,56.85
2022-08-31T22:27:06.149Z,56.73
2022-08-31T22:30:09.056Z,57.35
2022-08-31T22:33:11.103Z,58.02
2022-08-31T22:36:25.795Z,57.66
2022-08-31T22:39:33.839Z,57.50
2022-08-31T22:42:35.983Z,58.20
2022-08-31T22:45:48.504Z,57.68
2022-08-31T22:48:50.979Z,57.51
2022-08-31T22:51:54.519Z,56.87
2022-08-31T22:54:56.833Z,56.56
2022-08-31T22:57:58.943Z,56.40
2022-08-31T23:01:00.968Z,56.41
2022-08-31T23:04:08.551Z,56.05
2022-08-31T23:07:16.583Z,55.58
2022-08-31T23:10:20.052Z,55.34
2022-08-31T23:13:41.955Z,55.38
2022-08-31T23:16:46.938Z,55.19
2022-08-31T23:19:52.302Z,55.95
2022-08-31T23:22:55.440Z,55.78
2022-08-31T23:25:57.680Z,55.86
2022-08-31T23:29:05.506Z,55.91
2022-08-31T23:32:13.502Z,56.12
2022-08-31T23:35:17.955Z,55.83
2022-08-31T23:38:20.280Z,56.70
2022-08-31T23:41:25.911Z,55.89
2022-08-31T23:44:29.083Z,55.58
2022-08-31T23:47:31.868Z,56.11
2022-08-31T23:50:34.600Z,55.66
2022-08-31T23:53:38.276Z,54.98
2022-08-31T23:56:42.702Z,55.19
2022-08-31T23:59:52.262Z,55.43
